EW9706 Weather Reports


Display with metric or nautical units.
time (UTC)temp
F
wind
direction
speed
MPH
gust
MPH
rain 1hr
in
rain 24hr
in
rain mn
in
humidity
%
barometer
mb
20190218155031 81 147 5.0 12.0 0.00 0.00 0.00 53 1011.2
20190218153910 82 143 5.0 12.0 0.00 0.00 0.00 51 1011.2
20190218152856 82 157 4.0 11.0 0.00 0.00 0.00 51 1011.2
20190218151852 82 147 3.0 10.0 0.00 0.00 0.00 50 1010.8
20190218150811 83 166 7.0 10.0 0.00 0.00 0.00 50 1010.8
20190218145804 83 135 5.0 11.0 0.00 0.00 0.00 51 1010.8
20190218144755 83 134 5.0 11.0 0.00 0.00 0.00 51 1010.8
20190218143731 83 122 6.0 9.0 0.00 0.00 0.00 51 1010.8
20190218142647 82 139 3.0 11.0 0.00 0.00 0.00 53 1010.8
20190218141638 83 149 6.0 11.0 0.00 0.00 0.00 51 1010.8
20190218140523 83 121 5.0 12.0 0.00 0.00 0.00 51 1010.5
20190218135434 85 143 5.0 11.0 0.00 0.00 0.00 50 1010.5
20190218134350 85 157 3.0 10.0 0.00 0.00 0.00 50 1010.5
20190218133336 85 147 4.0 13.0 0.00 0.00 0.00 52 1010.5
20190218132320 85 125 6.0 10.0 0.00 0.00 0.00 49 1010.8
20190218131228 85 92 3.0 11.0 0.00 0.00 0.00 50 1010.8
20190218130219 84 131 8.0 11.0 0.00 0.00 0.00 51 1010.8
20190218124920 84 154 4.0 11.0 0.00 0.00 0.00 52 1010.8
20190218123907 85 128 4.0 10.0 0.00 0.00 0.00 49 1010.8
20190218122851 85 165 5.0 10.0 0.00 0.00 0.00 47 1010.8
20190218121818 85 160 5.0 10.0 0.00 0.00 0.00 49 1011.2
20190218120809 85 154 5.0 9.0 0.00 0.00 0.00 51 1011.2
20190218115655 85 170 5.0 11.0 0.00 0.00 0.00 48 1011.5
20190218114630 85 161 4.0 11.0 0.00 0.00 0.00 48 1011.5
20190218113528 85 131 5.0 10.0 0.00 0.00 0.00 49 1011.5
20190218112301 84 151 5.0 9.0 0.00 0.00 0.00 52 1011.5
20190218111220 83 112 0.0 6.0 0.00 0.00 0.00 54 1011.9
20190218110212 84 124 4.0 9.0 0.00 0.00 0.00 50 1011.9
20190218105202 84 163 5.0 10.0 0.00 0.00 0.00 53 1012.2
20190218104045 84 158 5.0 10.0 0.00 0.00 0.00 52 1012.2
20190218103033 85 77 2.0 10.0 0.00 0.00 0.00 53 1012.5
20190218102020 84 86 3.0 10.0 0.00 0.00 0.00 52 1012.5
20190218100902 83 127 3.0 9.0 0.00 0.00 0.00 56 1012.9
20190218095821 82 84 2.0 10.0 0.00 0.00 0.00 53 1012.9
20190218094813 83 159 5.0 10.0 0.00 0.00 0.00 51 1013.2
20190218093805 82 136 0.0 14.0 0.00 0.00 0.00 52 1013.2
20190218092512 82 150 6.0 14.0 0.00 0.00 0.00 50 1013.2
20190218091506 81 140 5.0 15.0 0.00 0.00 0.00 52 1013.2
20190218090452 81 185 3.0 15.0 0.00 0.00 0.00 52 1013.5
20190218085405 82 202 4.0 11.0 0.00 0.00 0.00 50 1013.5
20190218084359 82 180 7.0 11.0 0.00 0.00 0.00 50 1013.9
20190218083352 81 141 6.0 10.0 0.00 0.00 0.00 51 1013.9
20190218082310 81 160 6.0 10.0 0.00 0.00 0.00 48 1013.9
20190218081303 80 169 4.0 11.0 0.00 0.00 0.00 49 1013.9
20190218080222 80 162 6.0 11.0 0.00 0.00 0.00 49 1013.9
20190218075215 80 165 6.0 12.0 0.00 0.00 0.00 47 1013.9
20190218074208 79 156 5.0 11.0 0.00 0.00 0.00 49 1013.9
20190218073158 79 208 4.0 9.0 0.00 0.00 0.00 49 1013.9
20190218072152 78 243 1.0 10.0 0.00 0.00 0.00 48 1013.9
20190218071145 78 202 4.0 10.0 0.00 0.00 0.00 49 1013.9
20190218070127 78 155 3.0 10.0 0.00 0.00 0.00 51 1013.9
20190218065047 77 141 2.0 6.0 0.00 0.00 0.00 50 1013.9
20190218064028 77 153 1.0 2.0 0.00 0.00 0.00 51 1013.9
20190218062914 77 182 0.0 1.0 0.00 0.00 0.00 56 1013.9
20190218061823 75 202 0.0 1.0 0.00 0.00 0.00 60 1013.5
20190218060725 72 340 0.0 4.0 0.00 0.00 0.00 68 1013.5
20190218055718 71 304 0.0 1.0 0.00 0.00 0.00 74 1013.5
20190218054708 70 302 0.0 0.0 0.00 0.00 0.00 77 1013.5
20190218053655 70 302 0.0 0.0 0.00 0.00 0.00 76 1013.5
20190218052505 68 294 0.0 0.0 0.00 0.00 0.00 81 1013.5
20190218051453 67 303 0.0 0.0 0.00 0.00 0.00 84 1013.5
20190218050437 66 303 0.0 0.0 0.00 0.00 0.00 86 1013.9
20190218045143 65 305 0.0 0.0 0.00 0.00 0.00 88 1013.5
20190218044134 64 305 0.0 0.0 0.00 0.00 0.00 89 1013.5
20190218043128 63 305 0.0 0.0 0.00 0.00 0.00 91 1013.5
20190218042120 62 306 0.0 0.0 0.00 0.00 0.00 91 1013.5
20190218041113 62 306 0.0 0.0 0.00 0.00 0.00 92 1013.2
20190218040104 61 306 0.0 0.0 0.00 0.00 0.00 93 1012.9
20190218034949 61 306 0.0 0.0 0.00 0.00 0.00 94 1012.9
20190218033928 61 306 0.0 0.0 0.00 0.00 0.00 94 1012.9
20190218032848 62 302 0.0 0.0 0.00 0.00 0.00 94 1012.5
20190218031809 62 274 0.0 1.0 0.00 0.00 0.00 94 1012.5
20190218030657 62 279 0.0 1.0 0.00 0.00 0.00 94 1012.5
20190218025540 62 292 0.0 0.0 0.00 0.00 0.00 94 1012.5
20190218024529 62 319 0.0 4.0 0.00 0.00 0.00 94 1012.9
20190218023524 62 315 0.0 4.0 0.00 0.00 0.00 94 1012.5
20190218022412 62 315 0.0 0.0 0.00 0.00 0.00 94 1012.9
20190218021404 62 315 0.0 0.0 0.00 0.00 0.00 94 1012.5
20190218020357 62 315 0.0 0.0 0.00 0.00 0.00 94 1012.9
20190218015352 63 319 0.0 0.0 0.00 0.00 0.00 94 1012.9
20190218014347 63 302 0.0 0.0 0.00 0.00 0.00 94 1012.9
20190218013337 63 290 0.0 0.0 0.00 0.00 0.00 94 1012.9
20190218012152 63 286 0.0 0.0 0.00 0.00 0.00 94 1012.9
20190218011145 63 335 0.0 0.0 0.00 0.00 0.00 94 1012.9
20190218010132 63 302 0.0 0.0 0.00 0.00 0.00 94 1012.9
20190218005053 63 302 0.0 0.0 0.00 0.00 0.00 95 1012.9
20190218004047 63 296 0.0 4.0 0.00 0.00 0.00 94 1012.9
20190218003029 63 298 0.0 4.0 0.00 0.00 0.00 94 1012.9
20190218001950 63 296 0.0 0.0 0.00 0.00 0.00 94 1012.9
20190218000936 63 295 0.0 0.0 0.00 0.00 0.00 94 1013.2
20190217235824 63 295 0.0 0.0 0.00 0.00 0.00 94 1012.9
20190217234631 64 296 0.0 1.0 0.00 0.00 0.00 94 1013.2
20190217233623 64 301 0.0 4.0 0.00 0.00 0.00 94 1013.2
20190217232540 64 310 0.0 4.0 0.00 0.00 0.00 94 1013.2
20190217231501 64 314 0.0 0.0 0.00 0.00 0.00 94 1013.2
20190217230454 64 316 0.0 1.0 0.00 0.01 0.00 94 1013.2
20190217225414 64 311 0.0 6.0 0.00 0.01 0.00 93 1013.5
20190217224405 64 321 4.0 6.0 0.00 0.09 0.00 93 1013.5
20190217223325 64 294 0.0 0.0 0.00 0.12 0.00 92 1013.5
20190217222320 65 294 0.0 0.0 0.00 0.15 0.00 92 1013.9
20190217221207 65 283 0.0 0.0 0.00 0.17 0.00 91 1013.9
20190217220201 66 283 0.0 0.0 0.00 0.24 0.00 89 1013.9
20190217215154 67 281 0.0 0.0 0.00 0.33 0.29 87 1014.2
20190217214006 67 281 0.0 0.0 0.00 0.34 0.29 86 1014.2
20190217212944 68 264 0.0 0.0 0.00 0.37 0.29 86 1014.2
20190217211903 69 264 0.0 0.0 0.00 0.45 0.29 82 1014.2
20190217210736 70 236 0.0 0.0 0.00 0.50 0.29 78 1014.2
20190217205655 70 236 0.0 0.0 0.00 0.52 0.29 77 1014.2
20190217204648 70 236 0.0 1.0 0.00 0.56 0.29 76 1014.2
20190217203607 69 272 0.0 1.0 0.00 0.63 0.29 78 1014.2
20190217202600 69 240 0.0 0.0 0.00 0.66 0.29 80 1014.2
20190217201554 71 240 0.0 0.0 0.00 0.66 0.29 80 1013.9
20190217200451 72 221 0.0 0.0 0.00 0.66 0.29 75 1013.9
20190217195417 72 220 0.0 0.0 0.00 0.67 0.29 73 1013.9
20190217194304 72 220 0.0 0.0 0.00 0.67 0.29 72 1013.5
20190217193225 73 237 0.0 0.0 0.00 0.67 0.29 72 1013.5
20190217192142 73 237 0.0 4.0 0.00 0.67 0.29 73 1013.2
20190217191129 74 237 0.0 4.0 0.00 0.69 0.29 70 1013.2
20190217190032 74 196 0.0 4.0 0.00 0.72 0.29 67 1013.2
20190217185020 75 158 0.0 0.0 0.00 0.72 0.29 69 1013.2
20190217184012 75 158 0.0 5.0 0.00 0.72 0.29 67 1012.9
20190217183005 76 178 0.0 5.0 0.00 0.72 0.29 67 1012.5
20190217181817 76 172 0.0 5.0 0.00 0.72 0.29 66 1012.5
20190217180704 76 186 0.0 2.0 0.00 0.72 0.29 66 1012.2
20190217175434 77 181 1.0 10.0 0.00 0.72 0.29 65 1011.9
20190217174353 77 119 4.0 10.0 0.00 0.72 0.29 65 1011.9
20190217173346 77 130 2.0 7.0 0.00 0.72 0.29 64 1011.5
20190217172335 78 147 0.0 6.0 0.00 0.72 0.29 63 1011.2
20190217171223 78 143 3.0 6.0 0.00 0.73 0.29 63 1010.8
20190217170133 78 115 0.0 9.0 0.00 0.73 0.29 63 1010.8
20190217165050 79 148 0.0 9.0 0.00 0.73 0.29 61 1010.5
20190217164030 80 138 0.0 8.0 0.00 0.74 0.29 59 1010.2
20190217162916 80 161 2.0 9.0 0.00 0.77 0.29 57 1009.8
20190217161910 81 120 6.0 11.0 0.00 0.77 0.29 55 1009.5
20190217160900 82 137 5.0 11.0 0.00 0.77 0.29 53 1009.1